createdAt,value
2023-03-02T00:01:23.038Z,100710.63
2023-03-02T00:03:49.893Z,100706.13
2023-03-02T00:06:16.759Z,100706.84
2023-03-02T00:08:43.710Z,100703.69
2023-03-02T00:11:11.135Z,100709.06
2023-03-02T00:13:38.509Z,100702.97
2023-03-02T00:16:05.525Z,100699.38
2023-03-02T00:18:31.959Z,100696.53
2023-03-02T00:20:58.324Z,100689.59
2023-03-02T00:23:24.797Z,100688.75
2023-03-02T00:25:51.271Z,100691.50
2023-03-02T00:28:17.701Z,100698.59
2023-03-02T00:30:44.150Z,100692.34
2023-03-02T00:33:10.554Z,100681.84
2023-03-02T00:35:40.956Z,100693.13
2023-03-02T00:38:08.192Z,100684.50
2023-03-02T00:40:35.983Z,100681.75
2023-03-02T00:43:02.372Z,100682.72
2023-03-02T00:45:28.774Z,100679.31
2023-03-02T00:47:55.451Z,100679.19
2023-03-02T00:50:21.941Z,100678.00
2023-03-02T00:52:48.391Z,100678.09
2023-03-02T00:55:14.770Z,100672.06
2023-03-02T00:57:41.219Z,100684.31
2023-03-02T01:00:08.336Z,100667.81
2023-03-02T01:02:34.816Z,100669.41
2023-03-02T01:05:01.283Z,100664.19
2023-03-02T01:07:28.491Z,100669.50
2023-03-02T01:09:55.017Z,100662.50
2023-03-02T01:12:21.414Z,100663.34
2023-03-02T01:14:49.094Z,100655.47
2023-03-02T01:17:15.748Z,100650.25
2023-03-02T01:19:42.416Z,100647.72
2023-03-02T01:22:09.386Z,100645.97
2023-03-02T01:24:35.815Z,100646.69
2023-03-02T01:27:02.285Z,100652.59
2023-03-02T01:29:28.843Z,100646.25
2023-03-02T01:31:55.376Z,100646.84
2023-03-02T01:34:21.850Z,100635.31
2023-03-02T01:36:48.260Z,100643.97
2023-03-02T01:39:15.860Z,100643.47
2023-03-02T01:41:46.572Z,100647.75
2023-03-02T01:44:44.034Z,100639.19
2023-03-02T01:47:15.343Z,100647.00
2023-03-02T01:49:46.951Z,100639.38
2023-03-02T01:52:13.631Z,100639.34
2023-03-02T01:54:42.416Z,100645.25
2023-03-02T01:57:10.061Z,100635.59
2023-03-02T01:59:40.107Z,100639.75
2023-03-02T02:02:08.957Z,100637.09
2023-03-02T02:04:37.993Z,100633.19
2023-03-02T02:07:07.166Z,100634.38
2023-03-02T02:09:38.002Z,100631.16
2023-03-02T02:12:05.851Z,100627.50
2023-03-02T02:14:32.220Z,100629.22
2023-03-02T02:16:58.651Z,100620.59
2023-03-02T02:19:43.448Z,100626.63
2023-03-02T02:22:11.088Z,100619.72
2023-03-02T02:24:53.328Z,100620.06
2023-03-02T02:27:19.774Z,100608.81
2023-03-02T02:29:49.464Z,100617.66
2023-03-02T02:32:28.420Z,100616.34
2023-03-02T02:35:03.807Z,100611.34
2023-03-02T02:37:33.433Z,100608.72
2023-03-02T02:40:02.373Z,100607.00
2023-03-02T02:42:32.942Z,100609.78
2023-03-02T02:45:01.945Z,100613.09
2023-03-02T02:47:29.046Z,100603.38
2023-03-02T02:49:56.474Z,100603.94
2023-03-02T02:52:26.335Z,100608.41
2023-03-02T02:54:56.117Z,100600.63
2023-03-02T02:57:26.598Z,100601.53
2023-03-02T02:59:56.559Z,100597.94
2023-03-02T03:02:26.279Z,100597.41
2023-03-02T03:05:03.308Z,100590.81
2023-03-02T03:07:31.495Z,100591.91
2023-03-02T03:10:10.553Z,100587.59
2023-03-02T03:12:39.660Z,100590.31
2023-03-02T03:15:07.781Z,100586.16
2023-03-02T03:17:34.173Z,100585.22
2023-03-02T03:20:03.324Z,100590.50
2023-03-02T03:22:29.664Z,100587.31
2023-03-02T03:24:56.088Z,100596.38
2023-03-02T03:27:22.430Z,100595.03
2023-03-02T03:29:48.831Z,100598.09
2023-03-02T03:32:15.281Z,100595.47
2023-03-02T03:34:42.287Z,100590.34
2023-03-02T03:37:11.787Z,100592.81
2023-03-02T03:39:38.628Z,100601.72
2023-03-02T03:42:05.982Z,100595.53
2023-03-02T03:44:32.682Z,100592.72
2023-03-02T03:46:59.615Z,100597.72
2023-03-02T03:49:26.782Z,100593.47
2023-03-02T03:51:53.345Z,100598.00
2023-03-02T03:54:20.130Z,100591.88
2023-03-02T03:56:49.039Z,100591.91
2023-03-02T03:59:23.635Z,100592.78
2023-03-02T04:01:56.355Z,100586.16
2023-03-02T04:04:29.166Z,100590.38
2023-03-02T04:06:56.423Z,100587.59
2023-03-02T04:09:23.431Z,100583.78
2023-03-02T04:11:53.171Z,100590.41
2023-03-02T04:14:21.701Z,100588.34
2023-03-02T04:16:48.220Z,100590.75
2023-03-02T04:19:15.262Z,100590.00
2023-03-02T04:21:47.313Z,100592.66
2023-03-02T04:24:14.289Z,100605.13
2023-03-02T04:26:42.170Z,100601.47
2023-03-02T04:29:10.212Z,100600.97
2023-03-02T04:31:36.867Z,100600.97
2023-03-02T04:34:06.626Z,100601.97
2023-03-02T04:36:35.422Z,100609.44
2023-03-02T04:39:02.324Z,100603.34
2023-03-02T04:41:28.938Z,100610.03
2023-03-02T04:43:55.356Z,100601.88
2023-03-02T04:46:24.592Z,100597.97
2023-03-02T04:48:51.790Z,100602.22
2023-03-02T04:51:25.061Z,100609.22
2023-03-02T04:53:53.113Z,100606.22
2023-03-02T04:56:20.012Z,100608.75
2023-03-02T04:58:46.518Z,100618.78
2023-03-02T05:01:14.733Z,100615.94
2023-03-02T05:03:41.368Z,100619.50
2023-03-02T05:06:08.007Z,100619.94
2023-03-02T05:08:34.656Z,100608.63
2023-03-02T05:11:01.539Z,100608.50
2023-03-02T05:13:28.115Z,100611.03
2023-03-02T05:15:57.412Z,100606.84
2023-03-02T05:18:25.016Z,100608.69
2023-03-02T05:20:52.847Z,100604.28
2023-03-02T05:23:28.328Z,100607.81
2023-03-02T05:25:56.020Z,100602.31
2023-03-02T05:28:25.302Z,100609.09
2023-03-02T05:30:52.286Z,100602.78
2023-03-02T05:33:19.678Z,100608.84
2023-03-02T05:35:46.781Z,100613.41
2023-03-02T05:38:13.494Z,100605.50
2023-03-02T05:40:40.617Z,100603.06
2023-03-02T05:43:07.072Z,100608.38
2023-03-02T05:45:38.229Z,100611.72
2023-03-02T05:48:05.456Z,100606.53
2023-03-02T05:50:33.040Z,100608.53
2023-03-02T05:53:00.234Z,100612.69
2023-03-02T05:55:26.736Z,100610.28
2023-03-02T05:57:53.112Z,100613.53
2023-03-02T06:00:20.311Z,100617.69
2023-03-02T06:02:46.938Z,100608.97
2023-03-02T06:05:18.373Z,100608.53
2023-03-02T06:07:45.438Z,100602.47
2023-03-02T06:10:13.663Z,100612.88
2023-03-02T06:12:40.884Z,100621.44
2023-03-02T06:15:08.338Z,100621.53
2023-03-02T06:17:34.764Z,100616.94
2023-03-02T06:20:01.273Z,100618.06
2023-03-02T06:22:31.092Z,100623.44
2023-03-02T06:24:57.543Z,100613.16
2023-03-02T06:27:23.896Z,100615.25
2023-03-02T06:29:50.315Z,100615.53
2023-03-02T06:32:16.938Z,100624.28
2023-03-02T06:34:43.391Z,100625.09
2023-03-02T06:37:10.442Z,100631.84
2023-03-02T06:39:36.918Z,100628.81
2023-03-02T06:42:03.290Z,100631.47
2023-03-02T06:44:29.754Z,100628.38
2023-03-02T06:46:56.258Z,100629.03
2023-03-02T06:49:22.680Z,100624.50
2023-03-02T06:51:49.076Z,100624.78
2023-03-02T06:54:15.426Z,100625.63
2023-03-02T06:56:41.806Z,100620.53
2023-03-02T06:59:08.207Z,100615.44
2023-03-02T07:01:36.199Z,100624.34
2023-03-02T07:04:03.712Z,100620.84
2023-03-02T07:06:30.227Z,100616.91
2023-03-02T07:08:56.688Z,100613.75
2023-03-02T07:11:23.108Z,100618.41
2023-03-02T07:13:49.725Z,100620.16
2023-03-02T07:16:16.692Z,100620.47
2023-03-02T07:18:43.275Z,100617.13
2023-03-02T07:21:09.818Z,100620.03
2023-03-02T07:23:36.228Z,100615.84
2023-03-02T07:26:02.612Z,100623.75
2023-03-02T07:28:29.011Z,100618.88
2023-03-02T07:30:55.519Z,100622.25
2023-03-02T07:33:22.439Z,100617.22
2023-03-02T07:35:49.063Z,100616.56
2023-03-02T07:38:15.574Z,100618.63
2023-03-02T07:40:43.167Z,100615.41
2023-03-02T07:43:10.335Z,100612.34
2023-03-02T07:45:38.328Z,100610.06
2023-03-02T07:48:05.575Z,100609.97
2023-03-02T07:50:32.522Z,100608.50
2023-03-02T07:53:00.002Z,100617.31
2023-03-02T07:55:27.098Z,100619.13
2023-03-02T07:57:53.692Z,100614.59
2023-03-02T08:00:21.012Z,100619.06
2023-03-02T08:02:47.665Z,100614.75
2023-03-02T08:05:14.117Z,100614.94
2023-03-02T08:07:43.886Z,100612.41
2023-03-02T08:10:11.298Z,100626.44
2023-03-02T08:12:37.768Z,100610.66
2023-03-02T08:15:05.163Z,100620.31
2023-03-02T08:17:31.713Z,100618.56
2023-03-02T08:19:58.152Z,100608.84
2023-03-02T08:22:24.531Z,100613.25
2023-03-02T08:24:50.917Z,100615.84
2023-03-02T08:27:17.347Z,100615.81
2023-03-02T08:29:43.720Z,100609.66
2023-03-02T08:32:10.263Z,100607.00
2023-03-02T08:34:36.731Z,100604.31
2023-03-02T08:37:03.167Z,100619.28
2023-03-02T08:39:31.244Z,100601.69
2023-03-02T08:41:57.911Z,100591.97
2023-03-02T08:44:24.352Z,100588.47
2023-03-02T08:46:51.370Z,100595.50
2023-03-02T08:49:19.553Z,100585.69
2023-03-02T08:51:46.813Z,100583.03
2023-03-02T08:54:13.332Z,100584.75
2023-03-02T08:56:40.180Z,100578.53
2023-03-02T08:59:12.774Z,100582.91
2023-03-02T09:01:40.096Z,100581.00
2023-03-02T09:04:09.415Z,100580.22
2023-03-02T09:06:43.111Z,100585.56
2023-03-02T09:09:11.210Z,100589.94
2023-03-02T09:11:38.911Z,100590.63
2023-03-02T09:14:05.465Z,100580.09
2023-03-02T09:16:32.079Z,100573.03
2023-03-02T09:18:58.667Z,100580.91
2023-03-02T09:21:25.280Z,100572.97
2023-03-02T09:23:57.974Z,100570.19
2023-03-02T09:26:26.116Z,100567.38
2023-03-02T09:28:53.106Z,100567.56
2023-03-02T09:31:19.853Z,100574.34
2023-03-02T09:33:46.295Z,100577.06
2023-03-02T09:36:19.924Z,100568.34
2023-03-02T09:38:46.964Z,100568.16
2023-03-02T09:41:19.719Z,100572.41
2023-03-02T09:44:24.305Z,100569.53
2023-03-02T09:47:03.539Z,100567.00
2023-03-02T09:50:03.155Z,100573.25
2023-03-02T09:52:33.618Z,100575.94
2023-03-02T09:55:11.362Z,100578.31
2023-03-02T09:57:39.796Z,100583.53
2023-03-02T10:00:19.093Z,100583.44
2023-03-02T10:02:48.371Z,100585.06
2023-03-02T10:05:22.761Z,100585.03
2023-03-02T10:07:49.384Z,100583.47
2023-03-02T10:10:28.958Z,100580.84
2023-03-02T10:13:27.585Z,100581.66
2023-03-02T10:16:15.170Z,100592.09
2023-03-02T10:18:49.592Z,100582.84
2023-03-02T10:21:40.884Z,100581.88
2023-03-02T10:24:21.043Z,100579.25
2023-03-02T10:26:57.678Z,100578.41
2023-03-02T10:29:47.419Z,100564.34
2023-03-02T10:32:24.359Z,100578.41
2023-03-02T10:34:52.723Z,100574.13
2023-03-02T10:37:24.859Z,100567.66
2023-03-02T10:39:52.316Z,100565.66
2023-03-02T10:42:25.834Z,100572.97
2023-03-02T10:44:55.824Z,100565.59
2023-03-02T10:47:28.452Z,100566.22
2023-03-02T10:49:57.407Z,100562.78
2023-03-02T10:52:26.447Z,100560.13
2023-03-02T10:55:14.240Z,100554.13
2023-03-02T10:57:43.345Z,100554.28
2023-03-02T11:00:25.340Z,100555.78
2023-03-02T11:02:56.790Z,100557.16
2023-03-02T11:05:35.265Z,100547.47
2023-03-02T11:08:03.372Z,100542.94
2023-03-02T11:10:38.589Z,100536.41
2023-03-02T11:13:27.452Z,100538.88
2023-03-02T11:15:59.606Z,100530.34
2023-03-02T11:18:28.177Z,100535.66
2023-03-02T11:21:03.295Z,100543.44
2023-03-02T11:23:32.812Z,100529.03
2023-03-02T11:26:06.141Z,100528.34
2023-03-02T11:28:59.319Z,100523.19
2023-03-02T11:31:36.901Z,100520.28
2023-03-02T11:34:28.715Z,100521.38
2023-03-02T11:37:05.881Z,100511.84
2023-03-02T11:39:54.609Z,100506.44
2023-03-02T11:42:30.430Z,100513.13
2023-03-02T11:45:01.825Z,100513.56
2023-03-02T11:47:31.558Z,100504.69
2023-03-02T11:50:03.629Z,100512.84
2023-03-02T11:52:32.694Z,100507.66
2023-03-02T11:55:04.857Z,100500.09
2023-03-02T11:57:38.696Z,100492.38
2023-03-02T12:00:18.934Z,100497.22
2023-03-02T12:02:45.445Z,100489.28
2023-03-02T12:05:27.813Z,100483.28
2023-03-02T12:08:27.340Z,100484.50
2023-03-02T12:11:01.584Z,100473.81
2023-03-02T12:13:39.054Z,100483.66
2023-03-02T12:16:35.176Z,100480.00
2023-03-02T12:19:17.846Z,100469.09
2023-03-02T12:21:55.956Z,100467.59
2023-03-02T12:24:29.886Z,100469.47
2023-03-02T12:27:04.255Z,100471.50
2023-03-02T12:29:47.056Z,100471.69
2023-03-02T12:32:23.999Z,100461.31
2023-03-02T12:35:01.207Z,100456.78
2023-03-02T12:37:31.650Z,100448.25
2023-03-02T12:40:19.383Z,100442.84
2023-03-02T12:42:54.522Z,100437.13
2023-03-02T12:45:48.700Z,100441.84
2023-03-02T12:48:40.726Z,100431.44
2023-03-02T12:51:24.168Z,100429.34
2023-03-02T12:54:02.494Z,100426.69
2023-03-02T12:56:28.873Z,100429.75
2023-03-02T12:58:55.266Z,100419.81
2023-03-02T13:01:24.876Z,100417.94
2023-03-02T13:03:52.801Z,100423.72
2023-03-02T13:06:20.676Z,100410.91
2023-03-02T13:08:51.038Z,100415.38
2023-03-02T13:11:25.610Z,100407.44
2023-03-02T13:13:52.099Z,100408.50
2023-03-02T13:16:24.706Z,100409.84
2023-03-02T13:18:56.888Z,100395.94
2023-03-02T13:21:30.620Z,100401.47
2023-03-02T13:23:57.067Z,100399.22
2023-03-02T13:26:36.060Z,100398.06
2023-03-02T13:29:06.283Z,100402.19
2023-03-02T13:31:34.706Z,100398.41
2023-03-02T13:34:01.447Z,100391.84
2023-03-02T13:36:34.565Z,100390.09
2023-03-02T13:39:02.290Z,100387.84
2023-03-02T13:41:31.042Z,100384.22
2023-03-02T13:43:58.611Z,100378.91
2023-03-02T13:46:41.031Z,100375.41
2023-03-02T13:49:11.762Z,100384.94
2023-03-02T13:51:48.893Z,100386.06
2023-03-02T13:54:27.678Z,100373.00
2023-03-02T13:56:55.037Z,100369.13
2023-03-02T13:59:22.362Z,100368.91
2023-03-02T14:01:49.033Z,100362.09
2023-03-02T14:04:18.489Z,100364.28
2023-03-02T14:06:45.776Z,100371.28
2023-03-02T14:09:12.490Z,100363.66
2023-03-02T14:11:43.714Z,100358.88
2023-03-02T14:14:19.647Z,100365.31
2023-03-02T14:16:46.154Z,100366.66
2023-03-02T14:19:13.710Z,100362.69
2023-03-02T14:21:41.056Z,100364.88
2023-03-02T14:24:07.784Z,100357.41
2023-03-02T14:26:40.812Z,100357.94
2023-03-02T14:29:22.102Z,100357.81
2023-03-02T14:31:48.733Z,100356.50
2023-03-02T14:34:16.484Z,100363.13
2023-03-02T14:36:46.088Z,100357.75
2023-03-02T14:39:28.453Z,100353.06
2023-03-02T14:41:55.721Z,100349.56
2023-03-02T14:44:22.638Z,100350.13
2023-03-02T14:46:49.527Z,100352.09
2023-03-02T14:49:16.065Z,100352.69
2023-03-02T14:51:44.928Z,100352.78
2023-03-02T14:54:18.946Z,100355.56
2023-03-02T14:56:46.064Z,100353.88
2023-03-02T14:59:13.963Z,100349.72
2023-03-02T15:01:41.180Z,100347.56
2023-03-02T15:04:07.648Z,100340.75
2023-03-02T15:06:38.484Z,100342.50
2023-03-02T15:09:06.157Z,100342.53
2023-03-02T15:11:32.924Z,100351.63
2023-03-02T15:13:59.647Z,100348.41
2023-03-02T15:16:26.184Z,100345.56
2023-03-02T15:18:53.032Z,100350.28
2023-03-02T15:21:22.244Z,100353.22
2023-03-02T15:23:49.284Z,100352.63
2023-03-02T15:26:15.727Z,100348.56
2023-03-02T15:28:42.475Z,100353.97
2023-03-02T15:31:14.410Z,100354.88
2023-03-02T15:33:41.673Z,100352.16
2023-03-02T15:36:08.295Z,100356.81
2023-03-02T15:38:36.588Z,100343.97
2023-03-02T15:41:07.766Z,100358.06
2023-03-02T15:43:34.638Z,100353.88
2023-03-02T15:46:02.163Z,100353.25
2023-03-02T15:48:30.109Z,100350.78
2023-03-02T15:51:01.113Z,100346.63
2023-03-02T15:53:29.131Z,100350.16
2023-03-02T15:55:56.145Z,100357.09
2023-03-02T15:58:23.311Z,100362.75
2023-03-02T16:00:51.043Z,100361.66
2023-03-02T16:03:19.220Z,100360.50
2023-03-02T16:05:45.839Z,100370.75
2023-03-02T16:08:12.372Z,100367.22
2023-03-02T16:10:40.024Z,100370.03
2023-03-02T16:13:06.563Z,100366.59
2023-03-02T16:15:40.371Z,100370.13
2023-03-02T16:18:07.997Z,100374.44
2023-03-02T16:20:36.170Z,100376.22
2023-03-02T16:23:05.998Z,100381.31
2023-03-02T16:25:34.508Z,100375.56
2023-03-02T16:28:02.713Z,100380.44
2023-03-02T16:30:30.618Z,100391.41
2023-03-02T16:32:58.889Z,100382.81
2023-03-02T16:35:25.854Z,100395.69
2023-03-02T16:37:52.275Z,100397.25
2023-03-02T16:40:18.768Z,100398.22
2023-03-02T16:42:45.244Z,100402.66
2023-03-02T16:45:11.965Z,100398.66
2023-03-02T16:47:38.544Z,100401.53
2023-03-02T16:50:06.206Z,100402.69
2023-03-02T16:52:32.715Z,100407.34
2023-03-02T16:54:59.202Z,100404.91
2023-03-02T16:57:25.657Z,100408.13
2023-03-02T16:59:52.124Z,100413.66
2023-03-02T17:02:18.628Z,100418.25
2023-03-02T17:04:45.137Z,100412.22
2023-03-02T17:07:11.620Z,100411.31
2023-03-02T17:09:41.586Z,100419.31
2023-03-02T17:12:08.469Z,100424.09
2023-03-02T17:14:34.877Z,100423.94
2023-03-02T17:17:03.572Z,100427.97
2023-03-02T17:19:29.959Z,100421.84
2023-03-02T17:21:58.397Z,100432.53
2023-03-02T17:24:25.267Z,100433.34
2023-03-02T17:26:51.643Z,100431.44
2023-03-02T17:29:18.181Z,100438.19
2023-03-02T17:31:44.910Z,100443.31
2023-03-02T17:34:11.954Z,100445.78
2023-03-02T17:36:38.461Z,100446.94
2023-03-02T17:39:05.268Z,100448.16
2023-03-02T17:41:32.762Z,100449.56
2023-03-02T17:44:00.538Z,100455.06
2023-03-02T17:46:27.232Z,100449.59
2023-03-02T17:48:57.440Z,100452.00
2023-03-02T17:51:24.847Z,100458.44
2023-03-02T17:53:52.803Z,100464.66
2023-03-02T17:56:22.111Z,100465.53
2023-03-02T17:59:00.894Z,100472.34
2023-03-02T18:01:28.599Z,100468.28
2023-03-02T18:03:55.233Z,100472.81
2023-03-02T18:06:21.999Z,100477.41
2023-03-02T18:08:50.520Z,100482.97
2023-03-02T18:11:19.318Z,100476.16
2023-03-02T18:13:45.862Z,100488.50
2023-03-02T18:16:12.466Z,100490.53
2023-03-02T18:18:39.078Z,100484.31
2023-03-02T18:21:05.986Z,100496.84
2023-03-02T18:23:33.217Z,100498.75
2023-03-02T18:25:59.660Z,100496.03
2023-03-02T18:28:26.294Z,100495.69
2023-03-02T18:30:52.708Z,100498.03
2023-03-02T18:33:19.104Z,100502.63
2023-03-02T18:35:45.654Z,100498.00
2023-03-02T18:38:12.033Z,100502.06
2023-03-02T18:40:38.507Z,100499.72
2023-03-02T18:43:04.929Z,100505.59
2023-03-02T18:45:32.769Z,100513.22
2023-03-02T18:48:01.026Z,100517.06
2023-03-02T18:50:29.014Z,100516.53
2023-03-02T18:52:55.501Z,100520.75
2023-03-02T18:55:23.775Z,100518.88
2023-03-02T18:57:50.491Z,100520.16
2023-03-02T19:00:21.600Z,100520.28
2023-03-02T19:02:48.379Z,100524.81
2023-03-02T19:05:14.957Z,100530.53
2023-03-02T19:07:41.582Z,100533.94
2023-03-02T19:10:08.600Z,100528.84
2023-03-02T19:12:35.363Z,100534.84
2023-03-02T19:15:02.167Z,100534.06
2023-03-02T19:17:28.584Z,100531.41
2023-03-02T19:19:55.005Z,100529.97
2023-03-02T19:22:21.426Z,100533.53
2023-03-02T19:24:47.799Z,100541.63
2023-03-02T19:27:14.291Z,100531.09
2023-03-02T19:29:41.079Z,100538.94
2023-03-02T19:32:08.329Z,100541.69
2023-03-02T19:34:34.823Z,100547.19
2023-03-02T19:37:03.043Z,100546.28
2023-03-02T19:39:29.451Z,100556.81
2023-03-02T19:41:55.935Z,100545.59
2023-03-02T19:44:22.362Z,100561.38
2023-03-02T19:46:48.935Z,100557.91
2023-03-02T19:49:15.457Z,100558.84
2023-03-02T19:51:41.816Z,100556.22
2023-03-02T19:54:08.311Z,100558.81
2023-03-02T19:56:39.495Z,100560.59
2023-03-02T19:59:07.829Z,100563.25
2023-03-02T20:01:34.542Z,100557.97
2023-03-02T20:04:01.915Z,100565.03
2023-03-02T20:06:31.783Z,100570.28
2023-03-02T20:09:01.290Z,100572.00
2023-03-02T20:11:30.550Z,100567.59
2023-03-02T20:14:02.082Z,100578.06
2023-03-02T20:16:30.554Z,100571.06
2023-03-02T20:18:58.114Z,100578.09
2023-03-02T20:21:27.384Z,100572.75
2023-03-02T20:23:54.562Z,100580.66
2023-03-02T20:26:22.160Z,100589.41
2023-03-02T20:28:48.983Z,100590.22
2023-03-02T20:31:16.089Z,100591.84
2023-03-02T20:33:46.563Z,100588.28
2023-03-02T20:36:16.663Z,100583.91
2023-03-02T20:38:47.804Z,100590.84
2023-03-02T20:41:14.764Z,100589.84
2023-03-02T20:43:42.487Z,100591.69
2023-03-02T20:46:12.659Z,100592.47
2023-03-02T20:48:39.212Z,100593.31
2023-03-02T20:51:06.068Z,100605.56
2023-03-02T20:53:32.511Z,100604.72
2023-03-02T20:55:59.200Z,100599.47
2023-03-02T20:58:25.824Z,100600.22
2023-03-02T21:00:53.689Z,100603.81
2023-03-02T21:03:20.161Z,100599.16
2023-03-02T21:05:47.238Z,100595.50
2023-03-02T21:08:14.791Z,100598.41
2023-03-02T21:10:42.930Z,100602.34
2023-03-02T21:13:10.564Z,100605.25
2023-03-02T21:15:37.736Z,100609.63
2023-03-02T21:18:04.456Z,100612.78
2023-03-02T21:20:33.006Z,100616.19
2023-03-02T21:22:59.762Z,100610.06
2023-03-02T21:25:26.230Z,100614.38
2023-03-02T21:27:52.766Z,100607.34
2023-03-02T21:30:23.929Z,100612.63
2023-03-02T21:32:50.584Z,100608.94
2023-03-02T21:35:22.007Z,100607.06
2023-03-02T21:37:50.722Z,100601.66
2023-03-02T21:40:21.664Z,100597.44
2023-03-02T21:42:48.388Z,100598.28
2023-03-02T21:45:15.056Z,100601.78
2023-03-02T21:47:43.229Z,100609.91
2023-03-02T21:50:16.764Z,100611.56
2023-03-02T21:52:43.477Z,100609.47
2023-03-02T21:55:10.539Z,100605.09
2023-03-02T21:57:37.075Z,100604.22
2023-03-02T22:00:05.194Z,100597.88
2023-03-02T22:02:32.545Z,100608.16
2023-03-02T22:04:58.946Z,100609.91
2023-03-02T22:07:25.418Z,100617.50
2023-03-02T22:09:52.524Z,100620.09
2023-03-02T22:12:22.328Z,100626.25
2023-03-02T22:14:48.869Z,100621.69
2023-03-02T22:17:24.720Z,100624.22
2023-03-02T22:19:52.219Z,100629.09
2023-03-02T22:22:24.244Z,100624.97
2023-03-02T22:24:52.060Z,100628.41
2023-03-02T22:27:26.754Z,100626.34
2023-03-02T22:29:57.695Z,100627.88
2023-03-02T22:32:27.486Z,100630.53
2023-03-02T22:34:59.563Z,100626.06
2023-03-02T22:37:32.951Z,100622.81
2023-03-02T22:40:07.409Z,100616.56
2023-03-02T22:42:33.900Z,100616.66
2023-03-02T22:45:15.468Z,100614.19
2023-03-02T22:47:49.033Z,100615.88
2023-03-02T22:50:27.085Z,100618.53
2023-03-02T22:52:56.020Z,100618.53
2023-03-02T22:55:39.362Z,100616.81
2023-03-02T22:58:40.284Z,100623.56
2023-03-02T23:01:18.966Z,100614.00
2023-03-02T23:03:47.624Z,100618.66
2023-03-02T23:06:23.562Z,100619.41
2023-03-02T23:08:51.374Z,100624.00
2023-03-02T23:11:20.641Z,100622.16
2023-03-02T23:13:47.386Z,100631.50
2023-03-02T23:16:24.821Z,100633.94
2023-03-02T23:18:53.774Z,100635.97
2023-03-02T23:21:30.770Z,100641.00
2023-03-02T23:23:57.179Z,100633.81
2023-03-02T23:26:23.609Z,100632.66
2023-03-02T23:28:50.661Z,100630.84
2023-03-02T23:31:18.434Z,100637.88
2023-03-02T23:33:45.518Z,100631.47
2023-03-02T23:36:12.897Z,100625.31
2023-03-02T23:38:40.591Z,100629.16
2023-03-02T23:41:08.116Z,100640.09
2023-03-02T23:43:35.540Z,100637.16
2023-03-02T23:46:02.133Z,100633.88
2023-03-02T23:48:28.721Z,100635.19
2023-03-02T23:50:55.084Z,100639.81
2023-03-02T23:53:21.487Z,100633.16
2023-03-02T23:55:50.251Z,100637.31
2023-03-02T23:58:17.089Z,100633.59
